Flyer — WDJ5814 — position and weather

sailwx.info

Track history (hours):
 
Tides and Currents Weather Stations Pressure Air Temp Water Temp Dewpoint Dewpoint Depression Visibility Wind Speed Wind Dir Waves Ship Positions

Flyer

Owner: HNY Ferry Fleet LLC, New York, NY. More information available from US FCC via Universal Licensing System and Coast Guard Vessel Documentation Center.

Last reported at 2018-Jul-16 15:45 UTC. Time now 2018-Jul-17 14:57 UTC.
Position N 40°47' W 073°55'.

Length 26 m; draft 2 m.

Type: Passenger vessel. MMSI: 367791550.

Date/timePositionNaut miles runAvg speedWind from/ knotsBaromVisibWave heightAir tempDewpointWater temp
2018-Jul-16 15:45N 40°47' W 073°55'520.7
2018-Jul-16 15:31N 40°43' W 073°58'1 1.1
2018-Jul-16 15:00N 40°42' W 073°58'0 0.0
2018-Jul-16 13:32N 40°42' W 073°58'0 0.2
2018-Jul-16 13:30N 40°42' W 073°58'1 1.6
2018-Jul-16 13:00N 40°42' W 073°59'4 7.5
2018-Jul-16 12:30N 40°46' W 073°57'1 2.0
2018-Jul-16 12:00N 40°45' W 073°57'3 5.8
2018-Jul-16 11:30N 40°42' W 073°59'4 8.8
2018-Jul-16 11:00N 40°46' W 073°56'4 0.3
2018-Jul-15 19:17N 40°42' W 073°59'1 5.0
2018-Jul-15 19:00N 40°42' W 074°00'1 1.5
2018-Jul-15 18:09N 40°42' W 073°59'1 8.6
2018-Jul-15 18:00N 40°42' W 074°00'1 0.1
2018-Jul-15 01:49N 40°42' W 073°58'0 0.0
2018-Jul-15 01:30N 40°42' W 073°58'0 0.0
2018-Jul-15 01:00N 40°42' W 073°58'0 0.0
2018-Jul-15 00:30N 40°42' W 073°58'0 0.0
2018-Jul-15 00:00N 40°42' W 073°58'0 0.0
2018-Jul-14 23:30N 40°42' W 073°58'0 0.0
2018-Jul-14 23:00N 40°42' W 073°58'0 0.0
2018-Jul-14 22:30N 40°42' W 073°58'0 0.0
2018-Jul-14 22:00N 40°42' W 073°58'0 0.0
2018-Jul-14 21:30N 40°42' W 073°58'0 0.0
2018-Jul-14 21:01N 40°42' W 073°58'0 0.0
2018-Jul-14 20:30N 40°42' W 073°58'4 7.4
2018-Jul-14 19:55N 40°46' W 073°56'2 5.4
2018-Jul-14 19:31N 40°45' W 073°58'0 0.1
2018-Jul-14 19:00N 40°45' W 073°58'2 4.7
2018-Jul-14 18:30N 40°46' W 073°56'3 6.0
2018-Jul-14 18:01N 40°44' W 073°58'1 1.9
2018-Jul-14 17:30N 40°45' W 073°58'2 4.4
2018-Jul-14 17:00N 40°46' W 073°56'4 7.0
2018-Jul-14 16:31N 40°43' W 073°58'1 2.1
2018-Jul-14 16:00N 40°42' W 073°58'0 0.0
2018-Jul-14 15:30N 40°42' W 073°58'1 2.9
2018-Jul-14 15:00N 40°42' W 074°00'1 0.1
2018-Jul-13 23:55N 40°42' W 073°58'1 3.4
2018-Jul-13 23:30N 40°42' W 074°00'917.3
2018-Jul-13 23:00N 40°34' W 073°56'3 6.2
2018-Jul-13 22:29N 40°35' W 073°52'918.7
2018-Jul-13 22:00N 40°38' W 074°02'4 8.8
2018-Jul-13 21:30N 40°42' W 073°60'1 0.4
2018-Jul-13 19:10N 40°42' W 073°58'1 3.3
2018-Jul-13 19:01N 40°42' W 073°59'0 1.0
2018-Jul-13 18:30N 40°42' W 073°58'0 0.0
2018-Jul-13 18:01N 40°42' W 073°58'0 0.0
2018-Jul-13 17:30N 40°42' W 073°58'0 0.0
2018-Jul-13 17:00N 40°42' W 073°58'0 0.0
2018-Jul-13 16:30N 40°42' W 073°58'0 0.0
2018-Jul-13 16:00N 40°42' W 073°58'0 0.0
2018-Jul-13 15:30N 40°42' W 073°58'0 0.0
2018-Jul-13 15:00N 40°42' W 073°58'0 0.0
2018-Jul-13 14:00N 40°42' W 073°58'0 0.0
2018-Jul-12 23:25N 40°42' W 073°58'3 6.9
2018-Jul-12 23:01N 40°40' W 074°01'815.2
2018-Jul-12 22:30N 40°34' W 073°56'1 1.5
2018-Jul-12 22:00N 40°34' W 073°55'714.5
2018-Jul-12 21:31N 40°39' W 074°02'1 2.7
2018-Jul-12 21:01N 40°40' W 074°01'814.8
2018-Jul-12 20:30N 40°34' W 073°56'2 4.8
2018-Jul-12 20:00N 40°35' W 073°53'816.0
2018-Jul-12 19:31N 40°39' W 074°02'1 2.4
2018-Jul-12 19:01N 40°40' W 074°01'713.9
2018-Jul-12 18:29N 40°34' W 073°56'3 6.3
2018-Jul-12 18:00N 40°35' W 073°52'816.4
2018-Jul-12 17:30N 40°39' W 074°02'4 8.4
2018-Jul-12 17:01N 40°42' W 073°59'0 0.1
2018-Jul-12 15:27N 40°42' W 073°58'3 7.1
2018-Jul-12 15:01N 40°40' W 074°01'713.6
2018-Jul-12 14:28N 40°34' W 073°55'1 1.7
2018-Jul-12 14:01N 40°34' W 073°54'714.5
2018-Jul-12 13:30N 40°39' W 074°02'1 1.1
2018-Jul-12 13:01N 40°39' W 074°02'713.8
2018-Jul-12 12:30N 40°34' W 073°56'1 2.4
2018-Jul-12 12:00N 40°34' W 073°54'714.6
2018-Jul-12 11:31N 40°39' W 074°02'1 2.4
2018-Jul-12 11:01N 40°40' W 074°01'714.3
2018-Jul-12 10:30N 40°34' W 073°56'3 5.7
2018-Jul-12 10:00N 40°34' W 073°53'816.6
2018-Jul-12 09:30N 40°39' W 074°02'4 8.4
2018-Jul-12 09:00N 40°42' W 073°58'0 0.0
2018-Jul-12 02:00N 40°42' W 073°58'0 0.3
2018-Jul-12 01:31N 40°42' W 073°58'3 5.9
2018-Jul-12 01:01N 40°40' W 074°01'714.4
2018-Jul-12 00:31N 40°34' W 073°57'4 7.3
2018-Jul-12 00:01N 40°35' W 073°52'816.4
2018-Jul-11 23:30N 40°39' W 074°02'1 2.2
2018-Jul-11 23:01N 40°40' W 074°01'713.9
2018-Jul-11 22:29N 40°34' W 073°56'3 5.4
2018-Jul-11 22:01N 40°35' W 073°53'815.7
2018-Jul-11 21:30N 40°39' W 074°02'2 3.6
2018-Jul-11 21:00N 40°41' W 074°01'815.3
2018-Jul-11 20:30N 40°34' W 073°56'3 6.3
2018-Jul-11 20:00N 40°35' W 073°52'816.5
2018-Jul-11 19:30N 40°39' W 074°02'0 0.5
2018-Jul-11 19:01N 40°39' W 074°02'713.9
2018-Jul-11 18:30N 40°34' W 073°55'1 2.3
2018-Jul-11 18:00N 40°34' W 073°54'815.4
2018-Jul-11 17:30N 40°39' W 074°02'1 1.8
2018-Jul-11 17:01N 40°40' W 074°01'713.8
2018-Jul-11 16:30N 40°34' W 073°56'2 3.6
2018-Jul-11 16:00N 40°34' W 073°54'714.9
2018-Jul-11 15:31N 40°39' W 074°02'1 2.3
2018-Jul-11 15:00N 40°40' W 074°01'713.7
2018-Jul-11 14:30N 40°34' W 073°57'3 5.1
2018-Jul-11 14:00N 40°34' W 073°54'815.6
2018-Jul-11 13:30N 40°39' W 074°02'1 1.6
2018-Jul-11 13:01N 40°40' W 074°01'713.5
2018-Jul-11 12:30N 40°34' W 073°56'2 3.2
2018-Jul-11 11:59N 40°34' W 073°54'715.1
2018-Jul-11 11:30N 40°39' W 074°02'1 2.0
2018-Jul-11 11:01N 40°40' W 074°01'714.2
2018-Jul-11 10:30N 40°34' W 073°56'2 4.5
2018-Jul-11 10:00N 40°34' W 073°53'816.5
2018-Jul-11 09:30N 40°39' W 074°01'4 7.1
2018-Jul-11 09:00N 40°42' W 073°58'0 0.0
2018-Jul-11 08:30N 40°42' W 073°58'0 0.0
2018-Jul-11 00:31N 40°42' W 073°58'0 0.0
2018-Jul-11 00:30N 40°42' W 073°58'4 8.3
2018-Jul-11 00:01N 40°39' W 074°02'816.4
2018-Jul-10 23:30N 40°35' W 073°52'4 7.8
2018-Jul-10 23:00N 40°34' W 073°57'713.5
2018-Jul-10 22:31N 40°40' W 074°01'1 1.8
2018-Jul-10 22:01N 40°39' W 074°02'713.5
2018-Jul-10 21:30N 40°34' W 073°56'2 3.1
2018-Jul-10 20:59N 40°34' W 073°54'715.5
2018-Jul-10 20:30N 40°39' W 074°02'1 2.2
2018-Jul-10 20:00N 40°40' W 074°01'814.4
2018-Jul-10 19:29N 40°34' W 073°55'0 0.1
2018-Jul-10 19:00N 40°34' W 073°55'714.3
2018-Jul-10 18:30N 40°39' W 074°02'0 0.2
2018-Jul-10 18:01N 40°39' W 074°02'814.8
2018-Jul-10 17:27N 40°35' W 073°52'4 8.7
2018-Jul-10 17:00N 40°34' W 073°57'612.7
2018-Jul-10 16:31N 40°39' W 074°02'1 1.3
2018-Jul-10 16:01N 40°40' W 074°01'713.9
2018-Jul-10 15:30N 40°34' W 073°56'2 4.0
2018-Jul-10 15:00N 40°34' W 073°54'815.5
2018-Jul-10 14:30N 40°39' W 074°02'1 2.6
2018-Jul-10 14:01N 40°40' W 074°01'713.9
2018-Jul-10 13:30N 40°34' W 073°57'3 6.0
2018-Jul-10 13:01N 40°34' W 073°53'815.7
2018-Jul-10 12:31N 40°39' W 074°02'1 1.0
2018-Jul-10 12:01N 40°39' W 074°02'713.0
2018-Jul-10 11:30N 40°34' W 073°56'2 4.6
2018-Jul-10 10:59N 40°34' W 073°53'815.7
2018-Jul-10 10:30N 40°39' W 074°02'2 3.3
2018-Jul-10 10:01N 40°40' W 074°01'815.3
2018-Jul-10 09:30N 40°34' W 073°56'3 6.4
2018-Jul-10 09:00N 40°35' W 073°52'917.2
2018-Jul-10 08:31N 40°40' W 074°01'3 6.4
2018-Jul-10 08:00N 40°42' W 073°58'0 0.0
2018-Jul-10 07:30N 40°42' W 073°58'0 0.0
2018-Jul-10 01:39N 40°42' W 073°58'0 1.0
2018-Jul-10 01:30N 40°42' W 073°58'3 5.8
2018-Jul-10 01:01N 40°40' W 074°01'814.5
2018-Jul-10 00:29N 40°34' W 073°56'3 5.3
2018-Jul-10 00:00N 40°34' W 073°53'816.0
2018-Jul-09 23:30N 40°39' W 074°02'2 3.5
2018-Jul-09 23:01N 40°41' W 074°01'815.4
2018-Jul-09 22:30N 40°34' W 073°56'2 3.2
2018-Jul-09 22:01N 40°34' W 073°54'714.4
2018-Jul-09 21:31N 40°39' W 074°02'0 0.3
2018-Jul-09 21:00N 40°39' W 074°02'712.9
2018-Jul-09 20:30N 40°34' W 073°56'3 5.6
2018-Jul-09 20:00N 40°35' W 073°53'815.8
2018-Jul-09 19:30N 40°39' W 074°02'2 3.4
2018-Jul-09 19:01N 40°40' W 074°01'814.8
2018-Jul-09 18:30N 40°34' W 073°56'2 3.9
2018-Jul-09 18:00N 40°34' W 073°54'815.5
2018-Jul-09 17:30N 40°39' W 074°02'1 2.1
2018-Jul-09 17:01N 40°40' W 074°01'714.3
2018-Jul-09 16:30N 40°34' W 073°56'1 2.6
2018-Jul-09 16:00N 40°34' W 073°54'714.7
2018-Jul-09 15:31N 40°39' W 074°02'1 1.5
2018-Jul-09 15:01N 40°40' W 074°01'713.9
2018-Jul-09 14:29N 40°34' W 073°55'1 2.9
2018-Jul-09 14:00N 40°34' W 073°53'815.6
2018-Jul-09 13:31N 40°39' W 074°02'1 2.4
2018-Jul-09 13:01N 40°40' W 074°01'714.3
2018-Jul-09 12:30N 40°34' W 073°56'2 3.7
2018-Jul-09 12:00N 40°34' W 073°54'715.0
2018-Jul-09 11:30N 40°39' W 074°02'1 2.7
2018-Jul-09 11:01N 40°40' W 074°01'814.3
2018-Jul-09 10:29N 40°34' W 073°56'3 5.8
2018-Jul-09 10:00N 40°35' W 073°52'917.2
2018-Jul-09 09:31N 40°39' W 074°02'5 9.0
2018-Jul-09 09:00N 40°42' W 073°58'0 0.0
2018-Jul-09 01:41N 40°42' W 073°58'0 0.7
2018-Jul-09 01:31N 40°42' W 073°58'4 8.5
2018-Jul-09 01:00N 40°39' W 074°02'612.8
2018-Jul-09 00:30N 40°34' W 073°56'5 7.1
2018-Jul-08 23:48N 40°35' W 073°50'518.8
2018-Jul-08 23:30N 40°34' W 073°57'917.8
2018-Jul-08 23:01N 40°42' W 074°00'4 7.1
2018-Jul-08 22:30N 40°39' W 074°02'712.6
2018-Jul-08 21:59N 40°34' W 073°56'5 4.8
2018-Jul-08 20:50N 40°36' W 074°02'614.8
2018-Jul-08 20:24N 40°42' W 074°00'4 9.0
2018-Jul-08 20:00N 40°39' W 074°02'3 2.0
2018-Jul-08 18:23N 40°36' W 074°02'717.8
2018-Jul-08 18:00N 40°42' W 074°00'4 6.9
2018-Jul-08 17:29N 40°39' W 074°02'5 3.6
2018-Jul-08 16:01N 40°34' W 073°59'118.1
2018-Jul-08 15:57N 40°34' W 074°01'818.1
2018-Jul-08 15:30N 40°42' W 074°00'4 6.7
2018-Jul-08 14:58N 40°39' W 074°02'8 7.4
2018-Jul-08 13:53N 40°35' W 073°53'719.1
2018-Jul-08 13:30N 40°36' W 074°02'612.7
2018-Jul-08 12:59N 40°42' W 074°00'4 7.3
2018-Jul-08 12:30N 40°39' W 074°02'9 8.1
2018-Jul-08 11:26N 40°35' W 073°51'919.8
2018-Jul-08 11:00N 40°36' W 074°02'611.9
2018-Jul-08 10:29N 40°42' W 074°00'1 0.2
2018-Jul-08 01:45N 40°42' W 073°58'0 0.5
2018-Jul-08 01:30N 40°42' W 073°58'4 8.6
2018-Jul-08 01:01N 40°39' W 074°02'510.3
2018-Jul-08 00:30N 40°34' W 073°59'7 9.7
2018-Jul-07 23:48N 40°35' W 073°50'518.1
2018-Jul-07 23:30N 40°34' W 073°57'917.7
2018-Jul-07 23:00N 40°42' W 074°00'3 5.9
2018-Jul-07 22:30N 40°39' W 074°01'611.5
2018-Jul-07 22:00N 40°34' W 073°59'710.9
2018-Jul-07 21:23N 40°35' W 073°50'616.6
2018-Jul-07 21:00N 40°34' W 073°58'917.1
2018-Jul-07 20:31N 40°42' W 074°00'4 7.1
2018-Jul-07 20:00N 40°39' W 074°02'713.2
2018-Jul-07 19:30N 40°34' W 073°56'2 3.4
2018-Jul-07 18:46N 40°35' W 073°53'619.1
2018-Jul-07 18:26N 40°35' W 074°01'818.2
2018-Jul-07 18:00N 40°42' W 074°00'4 7.1
2018-Jul-07 17:30N 40°39' W 074°02'713.4
2018-Jul-07 17:00N 40°34' W 073°56'4 6.8
2018-Jul-07 16:22N 40°35' W 073°50'719.8
2018-Jul-07 16:00N 40°34' W 073°60'816.6
2018-Jul-07 15:30N 40°42' W 074°00'4 7.1
2018-Jul-07 15:01N 40°39' W 074°02'612.8
2018-Jul-07 14:30N 40°34' W 073°56'5 7.9
2018-Jul-07 13:54N 40°35' W 073°50'821.2
2018-Jul-07 13:30N 40°35' W 074°01'815.2
2018-Jul-07 13:01N 40°42' W 074°00'1 3.0
2018-Jul-07 12:31N 40°42' W 073°58'0 0.0
2018-Jul-07 01:38N 40°42' W 073°58'0 0.0
2018-Jul-07 01:30N 40°42' W 073°58'3 5.7
2018-Jul-07 01:01N 40°40' W 074°01'814.4
2018-Jul-07 00:29N 40°34' W 073°56'3 6.6
2018-Jul-07 00:00N 40°35' W 073°52'816.5
2018-Jul-06 23:30N 40°39' W 074°02'2 3.3
2018-Jul-06 23:00N 40°40' W 074°01'714.3
2018-Jul-06 22:30N 40°34' W 073°57'3 5.7
2018-Jul-06 22:00N 40°34' W 073°54'815.6
2018-Jul-06 21:30N 40°39' W 074°02'2 3.4
2018-Jul-06 21:00N 40°40' W 074°01'714.4
2018-Jul-06 20:30N 40°34' W 073°57'4 7.4
2018-Jul-06 20:00N 40°35' W 073°53'816.1
2018-Jul-06 19:30N 40°39' W 074°02'1 2.7
2018-Jul-06 19:00N 40°40' W 074°01'714.2
2018-Jul-06 18:30N 40°34' W 073°57'3 6.8
2018-Jul-06 18:00N 40°35' W 073°52'816.6
2018-Jul-06 17:31N 40°39' W 074°02'1 2.0
2018-Jul-06 17:01N 40°40' W 074°01'713.9
2018-Jul-06 16:30N 40°34' W 073°56'2 4.2
2018-Jul-06 16:00N 40°34' W 073°54'  
Track history (hours):
 
Tides and Currents Weather Stations Pressure Air Temp Water Temp Dewpoint Dewpoint Depression Visibility Wind Speed Wind Dir Waves Ship Positions

Flyer

Owner: HNY Ferry Fleet LLC, New York, NY. More information available from US FCC via Universal Licensing System and Coast Guard Vessel Documentation Center.

Last reported at 2018-Jul-16 15:45 UTC. Time now 2018-Jul-17 14:57 UTC.
Position N 40°47' W 073°55'.

Length 26 m; draft 2 m.

Type: Passenger vessel. MMSI: 367791550.

Date/timePositionNaut miles runAvg speedWind from/ knotsBaromVisibWave heightAir tempDewpointWater temp
2018-Jul-16 15:45N 40°47' W 073°55'520.7
2018-Jul-16 15:31N 40°43' W 073°58'1 1.1
2018-Jul-16 15:00N 40°42' W 073°58'0 0.0
2018-Jul-16 13:32N 40°42' W 073°58'0 0.2
2018-Jul-16 13:30N 40°42' W 073°58'1 1.6
2018-Jul-16 13:00N 40°42' W 073°59'4 7.5
2018-Jul-16 12:30N 40°46' W 073°57'1 2.0
2018-Jul-16 12:00N 40°45' W 073°57'3 5.8
2018-Jul-16 11:30N 40°42' W 073°59'4 8.8
2018-Jul-16 11:00N 40°46' W 073°56'4 0.3
2018-Jul-15 19:17N 40°42' W 073°59'1 5.0
2018-Jul-15 19:00N 40°42' W 074°00'1 1.5
2018-Jul-15 18:09N 40°42' W 073°59'1 8.6
2018-Jul-15 18:00N 40°42' W 074°00'1 0.1
2018-Jul-15 01:49N 40°42' W 073°58'0 0.0
2018-Jul-15 01:30N 40°42' W 073°58'0 0.0
2018-Jul-15 01:00N 40°42' W 073°58'0 0.0
2018-Jul-15 00:30N 40°42' W 073°58'0 0.0
2018-Jul-15 00:00N 40°42' W 073°58'0 0.0
2018-Jul-14 23:30N 40°42' W 073°58'0 0.0
2018-Jul-14 23:00N 40°42' W 073°58'0 0.0
2018-Jul-14 22:30N 40°42' W 073°58'0 0.0
2018-Jul-14 22:00N 40°42' W 073°58'0 0.0
2018-Jul-14 21:30N 40°42' W 073°58'0 0.0
2018-Jul-14 21:01N 40°42' W 073°58'0 0.0
2018-Jul-14 20:30N 40°42' W 073°58'4 7.4
2018-Jul-14 19:55N 40°46' W 073°56'2 5.4
2018-Jul-14 19:31N 40°45' W 073°58'0 0.1
2018-Jul-14 19:00N 40°45' W 073°58'2 4.7
2018-Jul-14 18:30N 40°46' W 073°56'3 6.0
2018-Jul-14 18:01N 40°44' W 073°58'1 1.9
2018-Jul-14 17:30N 40°45' W 073°58'2 4.4
2018-Jul-14 17:00N 40°46' W 073°56'4 7.0
2018-Jul-14 16:31N 40°43' W 073°58'1 2.1
2018-Jul-14 16:00N 40°42' W 073°58'0 0.0
2018-Jul-14 15:30N 40°42' W 073°58'1 2.9
2018-Jul-14 15:00N 40°42' W 074°00'1 0.1
2018-Jul-13 23:55N 40°42' W 073°58'1 3.4
2018-Jul-13 23:30N 40°42' W 074°00'917.3
2018-Jul-13 23:00N 40°34' W 073°56'3 6.2
2018-Jul-13 22:29N 40°35' W 073°52'918.7
2018-Jul-13 22:00N 40°38' W 074°02'4 8.8
2018-Jul-13 21:30N 40°42' W 073°60'1 0.4
2018-Jul-13 19:10N 40°42' W 073°58'1 3.3
2018-Jul-13 19:01N 40°42' W 073°59'0 1.0
2018-Jul-13 18:30N 40°42' W 073°58'0 0.0
2018-Jul-13 18:01N 40°42' W 073°58'0 0.0
2018-Jul-13 17:30N 40°42' W 073°58'0 0.0
2018-Jul-13 17:00N 40°42' W 073°58'0 0.0
2018-Jul-13 16:30N 40°42' W 073°58'0 0.0
2018-Jul-13 16:00N 40°42' W 073°58'0 0.0
2018-Jul-13 15:30N 40°42' W 073°58'0 0.0
2018-Jul-13 15:00N 40°42' W 073°58'0 0.0
2018-Jul-13 14:00N 40°42' W 073°58'0 0.0
2018-Jul-12 23:25N 40°42' W 073°58'3 6.9
2018-Jul-12 23:01N 40°40' W 074°01'815.2
2018-Jul-12 22:30N 40°34' W 073°56'1 1.5
2018-Jul-12 22:00N 40°34' W 073°55'714.5
2018-Jul-12 21:31N 40°39' W 074°02'1 2.7
2018-Jul-12 21:01N 40°40' W 074°01'814.8
2018-Jul-12 20:30N 40°34' W 073°56'2 4.8
2018-Jul-12 20:00N 40°35' W 073°53'816.0
2018-Jul-12 19:31N 40°39' W 074°02'1 2.4
2018-Jul-12 19:01N 40°40' W 074°01'713.9
2018-Jul-12 18:29N 40°34' W 073°56'3 6.3
2018-Jul-12 18:00N 40°35' W 073°52'816.4
2018-Jul-12 17:30N 40°39' W 074°02'4 8.4
2018-Jul-12 17:01N 40°42' W 073°59'0 0.1
2018-Jul-12 15:27N 40°42' W 073°58'3 7.1
2018-Jul-12 15:01N 40°40' W 074°01'713.6
2018-Jul-12 14:28N 40°34' W 073°55'1 1.7
2018-Jul-12 14:01N 40°34' W 073°54'714.5
2018-Jul-12 13:30N 40°39' W 074°02'1 1.1
2018-Jul-12 13:01N 40°39' W 074°02'713.8
2018-Jul-12 12:30N 40°34' W 073°56'1 2.4
2018-Jul-12 12:00N 40°34' W 073°54'714.6
2018-Jul-12 11:31N 40°39' W 074°02'1 2.4
2018-Jul-12 11:01N 40°40' W 074°01'714.3
2018-Jul-12 10:30N 40°34' W 073°56'3 5.7
2018-Jul-12 10:00N 40°34' W 073°53'816.6
2018-Jul-12 09:30N 40°39' W 074°02'4 8.4
2018-Jul-12 09:00N 40°42' W 073°58'0 0.0
2018-Jul-12 02:00N 40°42' W 073°58'0 0.3
2018-Jul-12 01:31N 40°42' W 073°58'3 5.9
2018-Jul-12 01:01N 40°40' W 074°01'714.4
2018-Jul-12 00:31N 40°34' W 073°57'4 7.3
2018-Jul-12 00:01N 40°35' W 073°52'816.4
2018-Jul-11 23:30N 40°39' W 074°02'1 2.2
2018-Jul-11 23:01N 40°40' W 074°01'713.9
2018-Jul-11 22:29N 40°34' W 073°56'3 5.4
2018-Jul-11 22:01N 40°35' W 073°53'815.7
2018-Jul-11 21:30N 40°39' W 074°02'2 3.6
2018-Jul-11 21:00N 40°41' W 074°01'815.3
2018-Jul-11 20:30N 40°34' W 073°56'3 6.3
2018-Jul-11 20:00N 40°35' W 073°52'816.5
2018-Jul-11 19:30N 40°39' W 074°02'0 0.5
2018-Jul-11 19:01N 40°39' W 074°02'713.9
2018-Jul-11 18:30N 40°34' W 073°55'1 2.3
2018-Jul-11 18:00N 40°34' W 073°54'815.4
2018-Jul-11 17:30N 40°39' W 074°02'1 1.8
2018-Jul-11 17:01N 40°40' W 074°01'713.8
2018-Jul-11 16:30N 40°34' W 073°56'2 3.6
2018-Jul-11 16:00N 40°34' W 073°54'714.9
2018-Jul-11 15:31N 40°39' W 074°02'1 2.3
2018-Jul-11 15:00N 40°40' W 074°01'713.7
2018-Jul-11 14:30N 40°34' W 073°57'3 5.1
2018-Jul-11 14:00N 40°34' W 073°54'815.6
2018-Jul-11 13:30N 40°39' W 074°02'1 1.6
2018-Jul-11 13:01N 40°40' W 074°01'713.5
2018-Jul-11 12:30N 40°34' W 073°56'2 3.2
2018-Jul-11 11:59N 40°34' W 073°54'715.1
2018-Jul-11 11:30N 40°39' W 074°02'1 2.0
2018-Jul-11 11:01N 40°40' W 074°01'714.2
2018-Jul-11 10:30N 40°34' W 073°56'2 4.5
2018-Jul-11 10:00N 40°34' W 073°53'816.5
2018-Jul-11 09:30N 40°39' W 074°01'4 7.1
2018-Jul-11 09:00N 40°42' W 073°58'0 0.0
2018-Jul-11 08:30N 40°42' W 073°58'0 0.0
2018-Jul-11 00:31N 40°42' W 073°58'0 0.0
2018-Jul-11 00:30N 40°42' W 073°58'4 8.3
2018-Jul-11 00:01N 40°39' W 074°02'816.4
2018-Jul-10 23:30N 40°35' W 073°52'4 7.8
2018-Jul-10 23:00N 40°34' W 073°57'713.5
2018-Jul-10 22:31N 40°40' W 074°01'1 1.8
2018-Jul-10 22:01N 40°39' W 074°02'713.5
2018-Jul-10 21:30N 40°34' W 073°56'2 3.1
2018-Jul-10 20:59N 40°34' W 073°54'715.5
2018-Jul-10 20:30N 40°39' W 074°02'1 2.2
2018-Jul-10 20:00N 40°40' W 074°01'814.4
2018-Jul-10 19:29N 40°34' W 073°55'0 0.1
2018-Jul-10 19:00N 40°34' W 073°55'714.3
2018-Jul-10 18:30N 40°39' W 074°02'0 0.2
2018-Jul-10 18:01N 40°39' W 074°02'814.8
2018-Jul-10 17:27N 40°35' W 073°52'4 8.7
2018-Jul-10 17:00N 40°34' W 073°57'612.7
2018-Jul-10 16:31N 40°39' W 074°02'1 1.3
2018-Jul-10 16:01N 40°40' W 074°01'713.9
2018-Jul-10 15:30N 40°34' W 073°56'2 4.0
2018-Jul-10 15:00N 40°34' W 073°54'815.5
2018-Jul-10 14:30N 40°39' W 074°02'1 2.6
2018-Jul-10 14:01N 40°40' W 074°01'713.9
2018-Jul-10 13:30N 40°34' W 073°57'3 6.0
2018-Jul-10 13:01N 40°34' W 073°53'815.7
2018-Jul-10 12:31N 40°39' W 074°02'1 1.0
2018-Jul-10 12:01N 40°39' W 074°02'713.0
2018-Jul-10 11:30N 40°34' W 073°56'2 4.6
2018-Jul-10 10:59N 40°34' W 073°53'815.7
2018-Jul-10 10:30N 40°39' W 074°02'2 3.3
2018-Jul-10 10:01N 40°40' W 074°01'815.3
2018-Jul-10 09:30N 40°34' W 073°56'3 6.4
2018-Jul-10 09:00N 40°35' W 073°52'917.2
2018-Jul-10 08:31N 40°40' W 074°01'3 6.4
2018-Jul-10 08:00N 40°42' W 073°58'0 0.0
2018-Jul-10 07:30N 40°42' W 073°58'0 0.0
2018-Jul-10 01:39N 40°42' W 073°58'0 1.0
2018-Jul-10 01:30N 40°42' W 073°58'3 5.8
2018-Jul-10 01:01N 40°40' W 074°01'814.5
2018-Jul-10 00:29N 40°34' W 073°56'3 5.3
2018-Jul-10 00:00N 40°34' W 073°53'816.0
2018-Jul-09 23:30N 40°39' W 074°02'2 3.5
2018-Jul-09 23:01N 40°41' W 074°01'815.4
2018-Jul-09 22:30N 40°34' W 073°56'2 3.2
2018-Jul-09 22:01N 40°34' W 073°54'714.4
2018-Jul-09 21:31N 40°39' W 074°02'0 0.3
2018-Jul-09 21:00N 40°39' W 074°02'712.9
2018-Jul-09 20:30N 40°34' W 073°56'3 5.6
2018-Jul-09 20:00N 40°35' W 073°53'815.8
2018-Jul-09 19:30N 40°39' W 074°02'2 3.4
2018-Jul-09 19:01N 40°40' W 074°01'814.8
2018-Jul-09 18:30N 40°34' W 073°56'2 3.9
2018-Jul-09 18:00N 40°34' W 073°54'815.5
2018-Jul-09 17:30N 40°39' W 074°02'1 2.1
2018-Jul-09 17:01N 40°40' W 074°01'714.3
2018-Jul-09 16:30N 40°34' W 073°56'1 2.6
2018-Jul-09 16:00N 40°34' W 073°54'714.7
2018-Jul-09 15:31N 40°39' W 074°02'1 1.5
2018-Jul-09 15:01N 40°40' W 074°01'713.9
2018-Jul-09 14:29N 40°34' W 073°55'1 2.9
2018-Jul-09 14:00N 40°34' W 073°53'815.6
2018-Jul-09 13:31N 40°39' W 074°02'1 2.4
2018-Jul-09 13:01N 40°40' W 074°01'714.3
2018-Jul-09 12:30N 40°34' W 073°56'2 3.7
2018-Jul-09 12:00N 40°34' W 073°54'715.0
2018-Jul-09 11:30N 40°39' W 074°02'1 2.7
2018-Jul-09 11:01N 40°40' W 074°01'814.3
2018-Jul-09 10:29N 40°34' W 073°56'3 5.8
2018-Jul-09 10:00N 40°35' W 073°52'917.2
2018-Jul-09 09:31N 40°39' W 074°02'5 9.0
2018-Jul-09 09:00N 40°42' W 073°58'0 0.0
2018-Jul-09 01:41N 40°42' W 073°58'0 0.7
2018-Jul-09 01:31N 40°42' W 073°58'4 8.5
2018-Jul-09 01:00N 40°39' W 074°02'612.8
2018-Jul-09 00:30N 40°34' W 073°56'5 7.1
2018-Jul-08 23:48N 40°35' W 073°50'518.8
2018-Jul-08 23:30N 40°34' W 073°57'917.8
2018-Jul-08 23:01N 40°42' W 074°00'4 7.1
2018-Jul-08 22:30N 40°39' W 074°02'712.6
2018-Jul-08 21:59N 40°34' W 073°56'5 4.8
2018-Jul-08 20:50N 40°36' W 074°02'614.8
2018-Jul-08 20:24N 40°42' W 074°00'4 9.0
2018-Jul-08 20:00N 40°39' W 074°02'3 2.0
2018-Jul-08 18:23N 40°36' W 074°02'717.8
2018-Jul-08 18:00N 40°42' W 074°00'4 6.9
2018-Jul-08 17:29N 40°39' W 074°02'5 3.6
2018-Jul-08 16:01N 40°34' W 073°59'118.1
2018-Jul-08 15:57N 40°34' W 074°01'818.1
2018-Jul-08 15:30N 40°42' W 074°00'4 6.7
2018-Jul-08 14:58N 40°39' W 074°02'8 7.4
2018-Jul-08 13:53N 40°35' W 073°53'719.1
2018-Jul-08 13:30N 40°36' W 074°02'612.7
2018-Jul-08 12:59N 40°42' W 074°00'4 7.3
2018-Jul-08 12:30N 40°39' W 074°02'9 8.1
2018-Jul-08 11:26N 40°35' W 073°51'919.8
2018-Jul-08 11:00N 40°36' W 074°02'611.9
2018-Jul-08 10:29N 40°42' W 074°00'1 0.2
2018-Jul-08 01:45N 40°42' W 073°58'0 0.5
2018-Jul-08 01:30N 40°42' W 073°58'4 8.6
2018-Jul-08 01:01N 40°39' W 074°02'510.3
2018-Jul-08 00:30N 40°34' W 073°59'7 9.7
2018-Jul-07 23:48N 40°35' W 073°50'518.1
2018-Jul-07 23:30N 40°34' W 073°57'917.7
2018-Jul-07 23:00N 40°42' W 074°00'3 5.9
2018-Jul-07 22:30N 40°39' W 074°01'611.5
2018-Jul-07 22:00N 40°34' W 073°59'710.9
2018-Jul-07 21:23N 40°35' W 073°50'616.6
2018-Jul-07 21:00N 40°34' W 073°58'917.1
2018-Jul-07 20:31N 40°42' W 074°00'4 7.1
2018-Jul-07 20:00N 40°39' W 074°02'713.2
2018-Jul-07 19:30N 40°34' W 073°56'2 3.4
2018-Jul-07 18:46N 40°35' W 073°53'619.1
2018-Jul-07 18:26N 40°35' W 074°01'818.2
2018-Jul-07 18:00N 40°42' W 074°00'4 7.1
2018-Jul-07 17:30N 40°39' W 074°02'713.4
2018-Jul-07 17:00N 40°34' W 073°56'4 6.8
2018-Jul-07 16:22N 40°35' W 073°50'719.8
2018-Jul-07 16:00N 40°34' W 073°60'816.6
2018-Jul-07 15:30N 40°42' W 074°00'4 7.1
2018-Jul-07 15:01N 40°39' W 074°02'612.8
2018-Jul-07 14:30N 40°34' W 073°56'5 7.9
2018-Jul-07 13:54N 40°35' W 073°50'821.2
2018-Jul-07 13:30N 40°35' W 074°01'815.2
2018-Jul-07 13:01N 40°42' W 074°00'1 3.0
2018-Jul-07 12:31N 40°42' W 073°58'0 0.0
2018-Jul-07 01:38N 40°42' W 073°58'0 0.0
2018-Jul-07 01:30N 40°42' W 073°58'3 5.7
2018-Jul-07 01:01N 40°40' W 074°01'814.4
2018-Jul-07 00:29N 40°34' W 073°56'3 6.6
2018-Jul-07 00:00N 40°35' W 073°52'816.5
2018-Jul-06 23:30N 40°39' W 074°02'2 3.3
2018-Jul-06 23:00N 40°40' W 074°01'714.3
2018-Jul-06 22:30N 40°34' W 073°57'3 5.7
2018-Jul-06 22:00N 40°34' W 073°54'815.6
2018-Jul-06 21:30N 40°39' W 074°02'2 3.4
2018-Jul-06 21:00N 40°40' W 074°01'714.4
2018-Jul-06 20:30N 40°34' W 073°57'4 7.4
2018-Jul-06 20:00N 40°35' W 073°53'816.1
2018-Jul-06 19:30N 40°39' W 074°02'1 2.7
2018-Jul-06 19:00N 40°40' W 074°01'714.2
2018-Jul-06 18:30N 40°34' W 073°57'3 6.8
2018-Jul-06 18:00N 40°35' W 073°52'816.6
2018-Jul-06 17:31N 40°39' W 074°02'1 2.0
2018-Jul-06 17:01N 40°40' W 074°01'713.9
2018-Jul-06 16:30N 40°34' W 073°56'2 4.2
2018-Jul-06 16:00N 40°34' W 073°54'  

Dump ship's entire track history